createdAt,value
2023-03-23T16:00:19.247Z,16.97
2023-03-23T16:03:25.983Z,16.94
2023-03-23T16:06:29.950Z,16.90
2023-03-23T16:09:31.549Z,16.84
2023-03-23T16:12:33.430Z,16.77
2023-03-23T16:15:35.119Z,16.71
2023-03-23T16:18:36.736Z,16.63
2023-03-23T16:21:38.373Z,16.51
2023-03-23T16:24:39.902Z,16.43
2023-03-23T16:27:42.120Z,16.35
2023-03-23T16:30:44.605Z,16.26
2023-03-23T16:33:46.103Z,16.23
2023-03-23T16:36:47.740Z,16.17
2023-03-23T16:39:49.232Z,16.11
2023-03-23T16:42:50.974Z,15.99
2023-03-23T16:45:56.062Z,15.83
2023-03-23T16:48:57.695Z,15.72
2023-03-23T16:51:59.317Z,15.63
2023-03-23T16:55:00.955Z,15.54
2023-03-23T16:58:15.502Z,15.45
2023-03-23T17:01:18.379Z,15.62
2023-03-23T17:04:20.139Z,15.90
2023-03-23T17:07:21.708Z,15.87
2023-03-23T17:10:27.799Z,15.77
2023-03-23T17:13:29.646Z,15.71
2023-03-23T17:16:31.369Z,15.64
2023-03-23T17:19:33.376Z,15.65
2023-03-23T17:22:35.329Z,15.61
2023-03-23T17:25:36.870Z,15.53
2023-03-23T17:28:38.513Z,15.48
2023-03-23T17:31:40.077Z,15.43
2023-03-23T17:34:42.244Z,15.35
2023-03-23T17:37:43.782Z,15.12
2023-03-23T17:40:45.368Z,14.85
2023-03-23T17:43:47.206Z,14.63
2023-03-23T17:46:48.710Z,14.52
2023-03-23T17:49:50.280Z,14.43
2023-03-23T17:52:51.851Z,14.29
2023-03-23T17:55:53.481Z,14.13
2023-03-23T17:58:55.085Z,14.00
2023-03-23T18:01:56.955Z,13.86
2023-03-23T18:04:58.589Z,13.70
2023-03-23T18:08:00.168Z,13.42
2023-03-23T18:11:02.060Z,13.18
2023-03-23T18:14:03.912Z,12.97
2023-03-23T18:17:05.464Z,12.78
2023-03-23T18:20:08.017Z,12.67
2023-03-23T18:23:09.730Z,12.65
2023-03-23T18:26:13.488Z,12.68
2023-03-23T18:29:15.052Z,12.71
2023-03-23T18:32:17.064Z,12.71
2023-03-23T18:35:19.007Z,12.53
2023-03-23T18:38:20.785Z,12.06
2023-03-23T18:41:22.598Z,11.98
2023-03-23T18:44:24.190Z,11.94
2023-03-23T18:47:26.474Z,11.93
2023-03-23T18:50:28.207Z,12.03
2023-03-23T18:53:30.411Z,11.96
2023-03-23T18:56:32.027Z,11.89
2023-03-23T18:59:33.668Z,11.82
2023-03-23T19:02:35.461Z,11.64
2023-03-23T19:05:38.925Z,11.48
2023-03-23T19:08:40.745Z,11.41
2023-03-23T19:11:42.778Z,11.32
2023-03-23T19:14:44.482Z,11.32
2023-03-23T19:17:46.615Z,11.34
2023-03-23T19:21:12.605Z,11.41
2023-03-23T19:24:10.712Z,11.38
2023-03-23T19:27:12.240Z,11.38
2023-03-23T19:30:14.016Z,11.38
2023-03-23T19:33:16.166Z,11.32
2023-03-23T19:36:18.466Z,11.26
2023-03-23T19:39:20.316Z,11.16
2023-03-23T19:42:22.990Z,10.96
2023-03-23T19:45:25.281Z,10.80
2023-03-23T19:48:27.132Z,10.71
2023-03-23T19:51:29.057Z,10.67
2023-03-23T19:54:31.006Z,10.74
2023-03-23T19:57:32.604Z,10.78
2023-03-23T20:00:35.850Z,10.87
2023-03-23T20:03:38.068Z,10.94
2023-03-23T20:06:40.135Z,10.87
2023-03-23T20:09:41.792Z,10.82
2023-03-23T20:12:43.591Z,10.72
2023-03-23T20:15:52.164Z,10.65
2023-03-23T20:18:54.312Z,10.50
2023-03-23T20:21:56.414Z,10.31
2023-03-23T20:25:00.445Z,10.32
2023-03-23T20:28:02.475Z,10.41
2023-03-23T20:31:23.493Z,10.56
2023-03-23T20:34:26.124Z,10.78
2023-03-23T20:37:27.976Z,10.84
2023-03-23T20:40:30.611Z,10.90
2023-03-23T20:43:33.300Z,10.93
2023-03-23T20:46:35.259Z,10.95
2023-03-23T20:49:38.214Z,11.07
2023-03-23T20:52:39.851Z,11.17
2023-03-23T20:55:41.595Z,11.37
2023-03-23T20:58:43.223Z,11.57
2023-03-23T21:01:44.911Z,11.66
2023-03-23T21:04:47.576Z,11.77
2023-03-23T21:07:49.459Z,11.85
2023-03-23T21:10:51.241Z,11.87
2023-03-23T21:13:53.014Z,11.91
2023-03-23T21:16:54.667Z,11.92
2023-03-23T21:19:56.495Z,11.91
2023-03-23T21:22:58.090Z,12.02
2023-03-23T21:26:01.984Z,12.13
2023-03-23T21:29:03.940Z,12.26
2023-03-23T21:32:08.571Z,12.26
2023-03-23T21:35:10.803Z,12.18
2023-03-23T21:38:12.533Z,12.13
2023-03-23T21:41:14.387Z,12.07
2023-03-23T21:44:16.492Z,12.00
2023-03-23T21:47:18.173Z,11.94
2023-03-23T21:50:19.829Z,11.87
2023-03-23T21:53:22.203Z,11.78
2023-03-23T21:56:25.896Z,11.73
2023-03-23T21:59:27.982Z,11.70
2023-03-23T22:02:29.525Z,11.66
2023-03-23T22:05:31.863Z,11.59
2023-03-23T22:08:33.425Z,11.52
2023-03-23T22:11:36.970Z,11.45
2023-03-23T22:14:39.281Z,11.37
2023-03-23T22:17:41.036Z,11.29
2023-03-23T22:20:43.405Z,11.25
2023-03-23T22:23:45.821Z,11.24
2023-03-23T22:26:47.385Z,11.25
2023-03-23T22:29:49.117Z,11.18
2023-03-23T22:32:50.604Z,11.10
2023-03-23T22:35:52.278Z,11.04
2023-03-23T22:38:54.325Z,11.01
2023-03-23T22:41:56.018Z,11.05
2023-03-23T22:44:57.562Z,11.12
2023-03-23T22:47:59.167Z,11.20
2023-03-23T22:51:00.799Z,11.23
2023-03-23T22:54:03.057Z,11.22
2023-03-23T22:57:11.184Z,11.24
2023-03-23T23:00:13.735Z,11.22
2023-03-23T23:03:16.228Z,11.19
2023-03-23T23:06:19.168Z,11.19
2023-03-23T23:09:20.833Z,11.18
2023-03-23T23:12:22.571Z,11.16
2023-03-23T23:15:24.378Z,11.19
2023-03-23T23:18:26.850Z,11.25
2023-03-23T23:21:28.390Z,11.27
2023-03-23T23:24:30.201Z,11.28
2023-03-23T23:27:32.053Z,11.34
2023-03-23T23:30:34.295Z,11.41
2023-03-23T23:33:35.910Z,11.53
2023-03-23T23:36:37.477Z,11.68
2023-03-23T23:39:39.089Z,11.72
2023-03-23T23:42:41.659Z,11.67
2023-03-23T23:45:43.581Z,11.57
2023-03-23T23:48:45.343Z,11.45
2023-03-23T23:51:47.146Z,11.35
2023-03-23T23:54:48.839Z,11.31
2023-03-23T23:57:50.548Z,11.28
